createdAt,value
2022-08-29T00:01:21.450Z,14.82
2022-08-29T00:05:32.826Z,14.60
2022-08-29T00:09:34.951Z,14.23
2022-08-29T00:13:37.249Z,14.07
2022-08-29T00:17:39.340Z,25.70
2022-08-29T00:21:41.665Z,19.80
2022-08-29T00:25:45.886Z,26.83
2022-08-29T00:29:48.365Z,19.20
2022-08-29T00:33:51.687Z,16.83
2022-08-29T00:37:55.098Z,16.38
2022-08-29T00:41:57.344Z,17.75
2022-08-29T00:46:23.871Z,31.55
2022-08-29T00:50:31.971Z,21.20
2022-08-29T00:54:35.271Z,31.98
2022-08-29T00:58:46.881Z,30.58
2022-08-29T01:02:49.212Z,28.92
2022-08-29T01:06:51.668Z,39.90
2022-08-29T01:11:13.648Z,27.73
2022-08-29T01:15:15.999Z,38.30
2022-08-29T01:19:31.817Z,42.10
2022-08-29T01:24:06.499Z,42.22
2022-08-29T01:28:18.925Z,46.13
2022-08-29T01:32:23.774Z,33.45
2022-08-29T01:36:52.007Z,36.28
2022-08-29T01:40:59.036Z,26.67
2022-08-29T01:45:02.877Z,33.30
2022-08-29T01:49:07.948Z,28.92
2022-08-29T01:53:10.277Z,30.02
2022-08-29T01:57:14.631Z,35.92
2022-08-29T02:01:25.408Z,23.08
2022-08-29T02:05:30.223Z,38.78
2022-08-29T02:09:32.922Z,38.17
2022-08-29T02:13:46.596Z,39.45
2022-08-29T02:17:48.884Z,35.20
2022-08-29T02:21:51.434Z,38.92
2022-08-29T02:25:53.743Z,34.28
2022-08-29T02:29:55.856Z,33.38
2022-08-29T02:33:58.332Z,40.05
2022-08-29T02:38:02.498Z,32.92
2022-08-29T02:42:05.387Z,43.45
2022-08-29T02:46:08.203Z,34.67
2022-08-29T02:50:12.092Z,43.35
2022-08-29T02:54:14.106Z,24.00
2022-08-29T02:58:16.640Z,45.78
2022-08-29T03:02:19.089Z,62.97
2022-08-29T03:06:22.605Z,64.20
2022-08-29T03:10:25.748Z,46.15
2022-08-29T03:14:28.091Z,66.35
2022-08-29T03:18:30.746Z,80.80
2022-08-29T03:22:34.871Z,59.17
2022-08-29T03:26:37.295Z,78.10
2022-08-29T03:30:40.239Z,92.75
2022-08-29T03:34:42.298Z,84.40
2022-08-29T03:38:46.868Z,85.93
2022-08-29T03:42:48.978Z,67.00
2022-08-29T03:46:51.511Z,84.43
2022-08-29T03:50:56.464Z,79.90
2022-08-29T03:54:59.136Z,97.63
2022-08-29T03:59:02.100Z,79.72
2022-08-29T04:03:04.523Z,86.72
2022-08-29T04:07:07.058Z,76.07
2022-08-29T04:11:14.737Z,90.15
2022-08-29T04:15:17.500Z,91.00
2022-08-29T04:19:21.297Z,78.65
2022-08-29T04:23:23.425Z,80.93
2022-08-29T04:27:25.725Z,103.60
2022-08-29T04:31:27.979Z,110.90
2022-08-29T04:35:30.345Z,106.57
2022-08-29T04:39:32.345Z,107.35
2022-08-29T04:43:34.713Z,73.43
2022-08-29T04:47:38.710Z,62.00
2022-08-29T04:51:41.054Z,57.67
2022-08-29T04:55:43.093Z,48.00
2022-08-29T04:59:47.657Z,44.53
2022-08-29T05:03:55.996Z,41.88
2022-08-29T05:07:58.342Z,42.15
2022-08-29T05:12:00.515Z,36.53
2022-08-29T05:16:11.291Z,38.08
2022-08-29T05:20:13.683Z,31.83
2022-08-29T05:24:15.990Z,37.63
2022-08-29T05:28:18.035Z,31.58
2022-08-29T05:32:21.701Z,20.73
2022-08-29T05:36:23.892Z,28.38
2022-08-29T05:40:26.762Z,12.10
2022-08-29T05:44:34.311Z,8.43
2022-08-29T05:48:41.990Z,7.80
2022-08-29T05:52:44.715Z,6.85
2022-08-29T05:56:47.964Z,5.93
2022-08-29T06:00:50.102Z,7.28
2022-08-29T06:04:52.942Z,7.50
2022-08-29T06:08:56.215Z,7.35
2022-08-29T06:12:58.622Z,7.90
2022-08-29T06:17:01.567Z,9.55
2022-08-29T06:21:07.385Z,9.20
2022-08-29T06:25:35.283Z,8.98
2022-08-29T06:29:32.574Z,9.23
2022-08-29T06:33:44.012Z,8.90
2022-08-29T06:37:46.233Z,7.05
2022-08-29T06:41:48.275Z,9.32
2022-08-29T06:45:50.586Z,7.07
2022-08-29T06:49:52.812Z,10.48
2022-08-29T06:53:55.078Z,6.68
2022-08-29T06:57:57.202Z,7.43
2022-08-29T07:01:59.461Z,7.45
2022-08-29T07:06:02.032Z,10.15
2022-08-29T07:10:04.695Z,7.95
2022-08-29T07:14:06.998Z,8.57
2022-08-29T07:18:09.270Z,7.82
2022-08-29T07:22:11.289Z,10.02
2022-08-29T07:26:16.976Z,9.45
2022-08-29T07:30:21.097Z,11.18
2022-08-29T07:34:23.544Z,12.20
2022-08-29T07:38:26.107Z,15.07
2022-08-29T07:42:28.527Z,15.05
2022-08-29T07:46:31.633Z,21.67
2022-08-29T07:50:34.191Z,17.67
2022-08-29T07:54:36.447Z,14.57
2022-08-29T07:58:39.286Z,17.67
2022-08-29T08:02:41.530Z,17.80
2022-08-29T08:06:44.725Z,18.63
2022-08-29T08:10:51.834Z,15.48
2022-08-29T08:14:54.552Z,16.88
2022-08-29T08:18:57.216Z,15.55
2022-08-29T08:22:59.854Z,20.23
2022-08-29T08:27:02.384Z,16.98
2022-08-29T08:31:07.350Z,15.23
2022-08-29T08:35:10.505Z,15.25
2022-08-29T08:39:14.771Z,12.10
2022-08-29T08:43:26.783Z,13.30
2022-08-29T08:47:53.556Z,16.20
2022-08-29T08:52:02.324Z,15.98
2022-08-29T08:56:13.857Z,11.57
2022-08-29T09:00:16.091Z,14.25
2022-08-29T09:04:42.574Z,11.73
2022-08-29T09:09:14.366Z,10.27
2022-08-29T09:13:40.270Z,13.80
2022-08-29T09:17:57.915Z,11.57
2022-08-29T09:22:10.287Z,15.20
2022-08-29T09:26:15.904Z,18.10
2022-08-29T09:30:24.756Z,11.75
2022-08-29T09:35:04.299Z,23.42
2022-08-29T09:39:28.594Z,13.48
2022-08-29T09:43:50.180Z,11.38
2022-08-29T09:48:17.602Z,11.20
2022-08-29T09:52:25.131Z,12.95
2022-08-29T09:56:28.370Z,15.35
2022-08-29T10:00:39.640Z,16.00
2022-08-29T10:04:44.143Z,12.88
2022-08-29T10:09:06.012Z,15.77
2022-08-29T10:13:15.532Z,16.27
2022-08-29T10:17:43.626Z,15.40
2022-08-29T10:22:00.055Z,10.40
2022-08-29T10:26:10.168Z,9.95
2022-08-29T10:30:22.707Z,8.82
2022-08-29T10:34:31.905Z,12.40
2022-08-29T10:38:34.190Z,12.82
2022-08-29T10:42:41.124Z,8.48
2022-08-29T10:46:54.132Z,6.60
2022-08-29T10:51:21.027Z,12.95
2022-08-29T10:55:49.635Z,14.23
2022-08-29T11:00:06.115Z,9.00
2022-08-29T11:04:19.835Z,6.03
2022-08-29T11:08:35.798Z,6.68
2022-08-29T11:12:58.540Z,9.57
2022-08-29T11:17:03.131Z,7.65
2022-08-29T11:21:32.433Z,9.90
2022-08-29T11:25:36.551Z,7.93
2022-08-29T11:29:52.838Z,5.70
2022-08-29T11:34:21.295Z,9.02
2022-08-29T11:38:42.761Z,3.23
2022-08-29T11:42:52.068Z,7.90
2022-08-29T11:46:57.053Z,4.80
2022-08-29T11:51:00.820Z,7.35
2022-08-29T11:55:24.025Z,8.82
2022-08-29T11:59:56.947Z,4.97
2022-08-29T12:04:00.358Z,7.18
2022-08-29T12:08:33.589Z,7.70
2022-08-29T12:12:42.375Z,7.45
2022-08-29T12:16:50.675Z,6.95
2022-08-29T12:20:57.008Z,5.90
2022-08-29T12:25:05.397Z,5.82
2022-08-29T12:33:40.192Z,6.55
2022-08-29T12:37:43.126Z,9.32
2022-08-29T12:41:50.339Z,10.27
2022-08-29T12:45:54.271Z,7.43
2022-08-29T12:50:01.196Z,5.93
2022-08-29T12:54:04.751Z,7.28
2022-08-29T12:58:08.054Z,15.20
2022-08-29T13:02:24.388Z,4.80
2022-08-29T13:06:27.401Z,5.47
2022-08-29T13:10:30.567Z,9.95
2022-08-29T13:14:35.295Z,5.18
2022-08-29T13:18:53.907Z,7.93
2022-08-29T13:23:18.066Z,6.13
2022-08-29T13:27:21.869Z,5.22
2022-08-29T13:31:29.748Z,8.25
2022-08-29T13:35:33.983Z,6.72
2022-08-29T13:39:41.560Z,5.03
2022-08-29T13:43:48.916Z,12.27
2022-08-29T13:48:12.559Z,6.35
2022-08-29T13:52:17.716Z,6.22
2022-08-29T13:56:31.421Z,6.80
2022-08-29T14:00:34.989Z,5.93
2022-08-29T14:04:39.843Z,9.77
2022-08-29T14:08:45.344Z,5.90
2022-08-29T14:12:47.710Z,5.72
2022-08-29T14:16:53.730Z,5.10
2022-08-29T14:20:56.108Z,4.93
2022-08-29T14:24:58.365Z,8.50
2022-08-29T14:29:03.271Z,7.28
2022-08-29T14:33:05.953Z,9.95
2022-08-29T14:37:12.600Z,9.65
2022-08-29T14:41:15.267Z,6.22
2022-08-29T14:45:17.451Z,8.65
2022-08-29T14:49:20.034Z,7.18
2022-08-29T14:53:22.649Z,4.85
2022-08-29T14:57:25.578Z,5.22
2022-08-29T15:01:28.363Z,6.80
2022-08-29T15:05:32.161Z,8.45
2022-08-29T15:09:34.365Z,6.88
2022-08-29T15:13:36.684Z,11.48
2022-08-29T15:17:39.011Z,14.02
2022-08-29T15:21:41.203Z,5.63
2022-08-29T15:25:43.804Z,16.58
2022-08-29T15:29:54.265Z,6.22
2022-08-29T15:33:57.885Z,9.85
2022-08-29T15:38:00.408Z,5.18
2022-08-29T15:42:08.562Z,9.23
2022-08-29T15:46:11.046Z,11.57
2022-08-29T15:50:13.530Z,5.38
2022-08-29T15:54:16.385Z,4.50
2022-08-29T15:58:18.434Z,4.90
2022-08-29T16:02:20.739Z,6.78
2022-08-29T16:06:22.845Z,5.93
2022-08-29T16:10:25.432Z,4.60
2022-08-29T16:14:58.041Z,9.45
2022-08-29T16:18:50.525Z,3.72
2022-08-29T16:22:53.372Z,5.72
2022-08-29T16:26:55.670Z,3.88
2022-08-29T16:30:58.995Z,3.72
2022-08-29T16:35:01.616Z,4.82
2022-08-29T16:39:05.932Z,3.42
2022-08-29T16:43:08.409Z,7.28
2022-08-29T16:47:11.298Z,3.05
2022-08-29T16:51:14.037Z,5.40
2022-08-29T16:55:21.482Z,4.93
2022-08-29T16:59:23.817Z,3.35
2022-08-29T17:03:26.007Z,7.85
2022-08-29T17:07:33.945Z,5.35
2022-08-29T17:11:39.845Z,4.18
2022-08-29T17:15:42.078Z,5.40
2022-08-29T17:19:44.735Z,5.53
2022-08-29T17:23:47.723Z,5.57
2022-08-29T17:28:14.339Z,3.40
2022-08-29T17:32:13.718Z,5.43
2022-08-29T17:36:17.193Z,5.72
2022-08-29T17:40:20.467Z,5.18
2022-08-29T17:44:25.488Z,5.85
2022-08-29T17:48:27.838Z,3.78
2022-08-29T17:52:30.108Z,4.53
2022-08-29T17:56:45.886Z,5.70
2022-08-29T18:00:49.001Z,6.57
2022-08-29T18:04:51.758Z,4.38
2022-08-29T18:08:53.932Z,6.07
2022-08-29T18:12:56.327Z,5.90
2022-08-29T18:16:58.472Z,5.78
2022-08-29T18:21:04.574Z,6.75
2022-08-29T18:25:07.905Z,8.43
2022-08-29T18:29:10.659Z,12.50
2022-08-29T18:33:13.175Z,9.60
2022-08-29T18:37:16.076Z,7.55
2022-08-29T18:41:18.354Z,8.52
2022-08-29T18:45:20.782Z,5.57
2022-08-29T18:49:42.975Z,6.15
2022-08-29T18:53:46.110Z,5.88
2022-08-29T18:57:48.410Z,4.68
2022-08-29T19:01:50.872Z,5.47
2022-08-29T19:05:54.147Z,6.70
2022-08-29T19:09:56.616Z,4.90
2022-08-29T19:13:59.237Z,6.68
2022-08-29T19:18:01.545Z,7.68
2022-08-29T19:22:03.708Z,9.93
2022-08-29T19:26:10.153Z,4.32
2022-08-29T19:30:14.500Z,6.22
2022-08-29T19:34:17.071Z,9.00
2022-08-29T19:38:21.388Z,7.00
2022-08-29T19:42:24.031Z,8.52
2022-08-29T19:46:26.575Z,8.43
2022-08-29T19:50:30.026Z,12.65
2022-08-29T19:54:32.504Z,10.07
2022-08-29T19:58:35.357Z,7.00
2022-08-29T20:02:37.509Z,6.07
2022-08-29T20:06:39.876Z,6.80
2022-08-29T20:10:44.817Z,7.72
2022-08-29T20:14:52.781Z,6.82
2022-08-29T20:18:55.500Z,9.30
2022-08-29T20:22:59.737Z,10.57
2022-08-29T20:27:02.682Z,9.52
2022-08-29T20:31:07.502Z,9.60
2022-08-29T20:35:09.677Z,7.22
2022-08-29T20:39:15.436Z,14.13
2022-08-29T20:43:18.783Z,9.48
2022-08-29T20:47:22.375Z,8.63
2022-08-29T20:51:24.486Z,5.70
2022-08-29T20:55:26.843Z,6.07
2022-08-29T20:59:32.647Z,8.50
2022-08-29T21:03:55.035Z,7.68
2022-08-29T21:07:57.153Z,7.00
2022-08-29T21:11:59.927Z,7.72
2022-08-29T21:16:04.656Z,6.70
2022-08-29T21:20:07.616Z,7.45
2022-08-29T21:24:12.479Z,8.63
2022-08-29T21:28:14.705Z,8.32
2022-08-29T21:32:17.200Z,10.52
2022-08-29T21:36:32.263Z,7.32
2022-08-29T21:40:34.841Z,7.82
2022-08-29T21:44:37.142Z,6.53
2022-08-29T21:48:39.196Z,11.55
2022-08-29T21:52:41.478Z,13.48
2022-08-29T21:56:44.283Z,8.32
2022-08-29T22:00:47.208Z,14.43
2022-08-29T22:04:49.337Z,9.85
2022-08-29T22:08:51.931Z,12.77
2022-08-29T22:12:57.844Z,9.35
2022-08-29T22:17:00.098Z,13.18
2022-08-29T22:21:04.591Z,8.40
2022-08-29T22:25:07.296Z,11.02
2022-08-29T22:29:11.748Z,10.93
2022-08-29T22:33:16.375Z,11.18
2022-08-29T22:37:19.934Z,9.27
2022-08-29T22:41:23.922Z,11.50
2022-08-29T22:45:26.101Z,12.70
2022-08-29T22:49:33.041Z,9.10
2022-08-29T22:53:35.594Z,11.70
2022-08-29T22:57:37.890Z,8.88
2022-08-29T23:01:43.498Z,10.73
2022-08-29T23:05:45.916Z,12.48
2022-08-29T23:09:48.365Z,8.90
2022-08-29T23:13:51.033Z,13.93
2022-08-29T23:17:53.179Z,9.27
2022-08-29T23:21:55.652Z,13.35
2022-08-29T23:25:59.231Z,12.02
2022-08-29T23:30:01.980Z,10.48
2022-08-29T23:34:04.333Z,15.30
2022-08-29T23:38:07.755Z,14.40
2022-08-29T23:42:10.495Z,12.50
2022-08-29T23:46:13.790Z,10.60
2022-08-29T23:50:16.434Z,9.85
2022-08-29T23:54:19.530Z,10.45
2022-08-29T23:58:21.870Z,11.27
